Time;durP1;ratioP1;P1;durP2;ratioP2;P2;SDS_P1;SDS_P2;PMS_P1;PMS_P2;Temp;Humidity;BMP_temperature;BMP_pressure;BME280_temperature;BME280_humidity;BME280_pressure;Samples;Min_cycle;Max_cycle;Signal;HPM_P1;HPM_P2
2022/02/16 00:00:14;;;;;;;0.20;0.20;;;;;;;;;;5048746;28;20037;-78
2022/02/16 00:02:40;;;;;;;0.10;0.10;;;;;;;;;;5050434;28;20052;-78
2022/02/16 00:05:08;;;;;;;0.10;0.10;;;;;;;;;;5063331;28;20471;-78
2022/02/16 00:07:34;;;;;;;0.00;0.00;;;;;;;;;;5051497;28;20511;-78
2022/02/16 00:10:01;;;;;;;0.00;0.00;;;;;;;;;;5050503;28;20411;-78
2022/02/16 00:12:26;;;;;;;0.10;0.10;;;;;;;;;;5049334;28;20179;-78
2022/02/16 00:14:53;;;;;;;0.10;0.10;;;;;;;;;;5058490;28;20457;-77
2022/02/16 00:17:18;;;;;;;0.00;0.00;;;;;;;;;;5050757;28;20029;-78
2022/02/16 00:19:44;;;;;;;0.20;0.20;;;;;;;;;;5052353;28;20024;-78
2022/02/16 00:22:10;;;;;;;0.10;0.10;;;;;;;;;;5057267;28;20391;-77
2022/02/16 00:24:36;;;;;;;0.43;0.43;;;;;;;;;;5048872;28;20035;-77
2022/02/16 00:27:02;;;;;;;0.00;0.00;;;;;;;;;;5048931;28;20031;-78
2022/02/16 00:29:28;;;;;;;0.05;0.05;;;;;;;;;;5049733;28;20028;-78
2022/02/16 00:31:54;;;;;;;0.43;0.38;;;;;;;;;;5049297;28;20570;-78
2022/02/16 00:34:23;;;;;;;0.20;0.20;;;;;;;;;;5049473;28;20111;-77
2022/02/16 00:36:50;;;;;;;0.05;0.05;;;;;;;;;;5057970;28;20040;-78
2022/02/16 00:39:16;;;;;;;0.40;0.40;;;;;;;;;;5051594;28;20032;-78
2022/02/16 00:41:42;;;;;;;0.32;0.30;;;;;;;;;;5049050;28;20029;-78
2022/02/16 00:44:08;;;;;;;0.10;0.10;;;;;;;;;;5050223;28;20024;-78
2022/02/16 00:46:34;;;;;;;0.10;0.10;;;;;;;;;;5051317;28;20037;-77
2022/02/16 00:49:00;;;;;;;0.10;0.10;;;;;;;;;;5052858;28;20017;-78
2022/02/16 00:51:26;;;;;;;0.00;0.00;;;;;;;;;;5049717;28;20357;-78
2022/02/16 00:53:52;;;;;;;0.00;0.00;;;;;;;;;;5056113;28;20506;-78
2022/02/16 00:56:17;;;;;;;0.65;0.45;;;;;;;;;;5049026;28;20083;-78
2022/02/16 00:58:43;;;;;;;0.00;0.00;;;;;;;;;;5048928;28;20021;-78
2022/02/16 01:01:09;;;;;;;0.10;0.10;;;;;;;;;;5049914;28;20025;-79
2022/02/16 01:03:36;;;;;;;1.45;0.90;;;;;;;;;;5044197;28;20530;-78
2022/02/16 01:06:02;;;;;;;0.35;0.35;;;;;;;;;;5046806;28;20036;-78
2022/02/16 01:08:29;;;;;;;0.00;0.00;;;;;;;;;;5046875;28;20167;-79
2022/02/16 01:10:55;;;;;;;0.65;0.47;;;;;;;;;;5049299;28;20016;-78
2022/02/16 01:13:24;;;;;;;0.10;0.10;;;;;;;;;;5041528;28;20439;-78
2022/02/16 01:15:50;;;;;;;0.10;0.10;;;;;;;;;;5059535;28;20023;-77
2022/02/16 01:18:16;;;;;;;0.63;0.63;;;;;;;;;;5049388;28;20104;-78
2022/02/16 01:20:42;;;;;;;0.00;0.00;;;;;;;;;;5051182;28;20032;-78
2022/02/16 01:23:08;;;;;;;0.10;0.10;;;;;;;;;;5048040;28;20013;-78
2022/02/16 01:25:34;;;;;;;1.83;0.75;;;;;;;;;;5046357;28;20027;-78
2022/02/16 01:28:00;;;;;;;0.03;0.03;;;;;;;;;;5047064;28;20946;-78
2022/02/16 01:30:27;;;;;;;0.43;0.43;;;;;;;;;;5052129;28;20031;-78
2022/02/16 01:32:53;;;;;;;0.10;0.10;;;;;;;;;;5051663;28;20423;-78
2022/02/16 01:35:19;;;;;;;0.10;0.10;;;;;;;;;;5053093;28;20032;-78
2022/02/16 01:37:44;;;;;;;0.00;0.00;;;;;;;;;;5047942;28;20033;-78
2022/02/16 01:40:11;;;;;;;0.00;0.00;;;;;;;;;;5063783;28;20017;-78
2022/02/16 01:42:36;;;;;;;0.38;0.38;;;;;;;;;;5053050;28;20125;-78
2022/02/16 01:45:03;;;;;;;0.47;0.47;;;;;;;;;;5048654;28;20100;-77
2022/02/16 01:47:29;;;;;;;0.05;0.05;;;;;;;;;;5048717;28;20242;-78
2022/02/16 01:49:55;;;;;;;0.35;0.35;;;;;;;;;;5048928;28;20075;-78
2022/02/16 01:52:21;;;;;;;0.10;0.10;;;;;;;;;;5047448;28;20025;-77
2022/02/16 01:54:47;;;;;;;0.60;0.60;;;;;;;;;;5061174;28;20053;-77
2022/02/16 01:57:14;;;;;;;0.10;0.10;;;;;;;;;;5048609;28;20024;-78
2022/02/16 01:59:40;;;;;;;2.92;0.35;;;;;;;;;;5049320;28;20128;-78
2022/02/16 02:02:07;;;;;;;0.15;0.15;;;;;;;;;;5044997;28;20108;-77
2022/02/16 02:04:33;;;;;;;0.30;0.30;;;;;;;;;;5045481;28;20029;-78
2022/02/16 02:06:59;;;;;;;0.10;0.10;;;;;;;;;;5049286;28;20163;-78
2022/02/16 02:09:25;;;;;;;0.20;0.20;;;;;;;;;;5052433;28;20035;-78
2022/02/16 02:11:51;;;;;;;0.20;0.20;;;;;;;;;;5047193;28;20029;-78
2022/02/16 02:14:17;;;;;;;0.80;0.65;;;;;;;;;;5051771;28;20107;-78
2022/02/16 02:16:43;;;;;;;0.40;0.40;;;;;;;;;;5053399;28;20029;-77
2022/02/16 02:19:09;;;;;;;0.30;0.30;;;;;;;;;;5053096;28;20393;-78
2022/02/16 02:21:36;;;;;;;0.10;0.10;;;;;;;;;;5047778;28;20388;-77
2022/02/16 02:24:02;;;;;;;0.28;0.28;;;;;;;;;;5048098;28;20017;-78
2022/02/16 02:26:28;;;;;;;0.00;0.00;;;;;;;;;;5052478;28;20511;-78
2022/02/16 02:28:54;;;;;;;0.32;0.15;;;;;;;;;;5052165;28;20714;-77
2022/02/16 02:31:33;;;;;;;0.20;0.20;;;;;;;;;;5057280;28;20028;-78
2022/02/16 02:33:59;;;;;;;0.10;0.10;;;;;;;;;;5052342;28;20041;-79
2022/02/16 02:36:28;;;;;;;0.10;0.10;;;;;;;;;;5047760;28;20031;-79
2022/02/16 02:38:55;;;;;;;0.00;0.00;;;;;;;;;;5051807;28;20103;-78
2022/02/16 02:41:21;;;;;;;1.75;0.65;;;;;;;;;;5047826;28;20043;-78
2022/02/16 02:43:47;;;;;;;0.00;0.00;;;;;;;;;;5048390;28;20027;-78
2022/02/16 02:46:13;;;;;;;0.10;0.10;;;;;;;;;;5048296;28;20137;-77
2022/02/16 02:48:40;;;;;;;0.00;0.00;;;;;;;;;;5056701;28;20166;-78
2022/02/16 02:51:06;;;;;;;0.00;0.00;;;;;;;;;;5049759;28;20026;-78
2022/02/16 02:53:32;;;;;;;0.22;0.22;;;;;;;;;;5055159;28;20056;-78
2022/02/16 02:55:58;;;;;;;0.10;0.10;;;;;;;;;;5047735;28;20029;-79
2022/02/16 02:58:27;;;;;;;0.10;0.10;;;;;;;;;;5050802;28;20024;-78
2022/02/16 03:00:52;;;;;;;2.40;1.40;;;;;;;;;;5049691;28;20098;-78
2022/02/16 03:03:19;;;;;;;0.10;0.10;;;;;;;;;;5055362;28;20476;-78
2022/02/16 03:05:44;;;;;;;0.30;0.30;;;;;;;;;;5058657;28;20020;-79
2022/02/16 03:08:10;;;;;;;0.10;0.10;;;;;;;;;;5047671;28;20040;-78
2022/02/16 03:10:36;;;;;;;1.13;0.70;;;;;;;;;;5047084;28;20021;-79
2022/02/16 03:13:19;;;;;;;1.27;1.17;;;;;;;;;;5058565;28;20029;-78
2022/02/16 03:15:45;;;;;;;0.00;0.00;;;;;;;;;;5053065;28;20108;-78
2022/02/16 03:18:11;;;;;;;0.08;0.08;;;;;;;;;;5052459;28;20037;-78
2022/02/16 03:20:37;;;;;;;0.10;0.10;;;;;;;;;;5051478;28;20035;-79
2022/02/16 03:23:03;;;;;;;0.10;0.10;;;;;;;;;;5051283;28;20029;-79
2022/02/16 03:25:29;;;;;;;0.10;0.10;;;;;;;;;;5056550;28;20017;-79
2022/02/16 03:27:55;;;;;;;0.10;0.10;;;;;;;;;;5051105;28;20036;-78
2022/02/16 03:30:23;;;;;;;0.47;0.20;;;;;;;;;;5053802;28;20094;-78
2022/02/16 03:32:49;;;;;;;0.20;0.20;;;;;;;;;;5053259;28;20392;-78
2022/02/16 03:35:15;;;;;;;0.55;0.55;;;;;;;;;;5058572;28;20031;-78
2022/02/16 03:37:41;;;;;;;0.10;0.10;;;;;;;;;;5054190;28;20120;-79
2022/02/16 03:40:10;;;;;;;0.25;0.25;;;;;;;;;;5051300;28;20033;-79
2022/02/16 03:42:36;;;;;;;0.10;0.10;;;;;;;;;;5050591;28;20033;-78
2022/02/16 03:45:03;;;;;;;0.20;0.20;;;;;;;;;;5052805;28;20028;-78
2022/02/16 03:47:29;;;;;;;0.17;0.17;;;;;;;;;;5051180;28;20036;-78
2022/02/16 03:49:55;;;;;;;0.10;0.10;;;;;;;;;;5051223;28;20021;-78
2022/02/16 03:52:21;;;;;;;0.10;0.10;;;;;;;;;;5060571;28;20035;-79
2022/02/16 03:54:48;;;;;;;0.10;0.10;;;;;;;;;;5053054;28;20143;-79
2022/02/16 03:57:14;;;;;;;0.00;0.00;;;;;;;;;;5050949;28;20031;-79
2022/02/16 03:59:40;;;;;;;0.10;0.10;;;;;;;;;;5051880;28;20025;-78
2022/02/16 04:02:06;;;;;;;0.10;0.10;;;;;;;;;;5028533;28;20028;-78
2022/02/16 04:04:33;;;;;;;1.60;0.43;;;;;;;;;;5050590;28;20052;-79
2022/02/16 04:06:59;;;;;;;0.13;0.13;;;;;;;;;;5052538;28;20029;-77
2022/02/16 04:09:25;;;;;;;1.55;1.05;;;;;;;;;;5052957;28;20155;-78
2022/02/16 04:11:51;;;;;;;0.08;0.08;;;;;;;;;;5050270;28;20365;-79
2022/02/16 04:14:17;;;;;;;0.00;0.00;;;;;;;;;;5056134;28;20032;-78
2022/02/16 04:16:43;;;;;;;0.10;0.10;;;;;;;;;;5059032;28;20034;-77
2022/02/16 04:19:12;;;;;;;0.30;0.30;;;;;;;;;;5059258;28;20052;-78
2022/02/16 04:21:37;;;;;;;0.10;0.10;;;;;;;;;;5055428;28;20392;-78
2022/02/16 04:24:04;;;;;;;0.10;0.10;;;;;;;;;;5049918;28;20043;-79
2022/02/16 04:26:29;;;;;;;0.20;0.20;;;;;;;;;;5050576;28;20024;-77
2022/02/16 04:28:56;;;;;;;0.10;0.10;;;;;;;;;;5052962;28;20101;-79
2022/02/16 04:31:22;;;;;;;0.98;0.95;;;;;;;;;;5056726;28;20097;-77
2022/02/16 04:33:47;;;;;;;0.10;0.10;;;;;;;;;;5050185;28;20606;-79
2022/02/16 04:36:25;;;;;;;0.10;0.10;;;;;;;;;;5049798;28;20387;-79
2022/02/16 04:38:51;;;;;;;0.15;0.15;;;;;;;;;;5051171;28;20037;-79
2022/02/16 04:41:17;;;;;;;0.00;0.00;;;;;;;;;;5053779;28;20033;-78
2022/02/16 04:43:43;;;;;;;0.20;0.20;;;;;;;;;;5049269;28;20036;-78
2022/02/16 04:46:09;;;;;;;0.57;0.57;;;;;;;;;;5060483;28;20025;-78
2022/02/16 04:48:37;;;;;;;0.50;0.50;;;;;;;;;;5050664;28;20040;-77
2022/02/16 04:51:03;;;;;;;0.00;0.00;;;;;;;;;;5048790;28;20029;-79
2022/02/16 04:53:32;;;;;;;0.30;0.30;;;;;;;;;;5050608;28;20044;-78
2022/02/16 04:55:58;;;;;;;0.10;0.10;;;;;;;;;;5047534;28;20029;-78
2022/02/16 04:58:24;;;;;;;0.10;0.10;;;;;;;;;;5049909;28;20052;-78
2022/02/16 05:00:50;;;;;;;2.10;1.08;;;;;;;;;;5056528;28;20021;-78
2022/02/16 05:03:16;;;;;;;0.03;0.03;;;;;;;;;;5051825;28;20021;-79
2022/02/16 05:05:42;;;;;;;0.00;0.00;;;;;;;;;;5058717;28;20024;-79
2022/02/16 05:08:08;;;;;;;0.35;0.35;;;;;;;;;;5063743;28;20537;-78
2022/02/16 05:10:34;;;;;;;0.10;0.10;;;;;;;;;;5052815;28;20036;-79
2022/02/16 05:13:00;;;;;;;0.00;0.00;;;;;;;;;;5045174;28;20491;-78
2022/02/16 05:15:25;;;;;;;0.17;0.17;;;;;;;;;;5052839;28;20029;-78
2022/02/16 05:17:52;;;;;;;0.10;0.10;;;;;;;;;;5056761;28;20059;-78
2022/02/16 05:20:18;;;;;;;0.90;0.32;;;;;;;;;;5054165;28;20237;-78
2022/02/16 05:22:44;;;;;;;0.22;0.22;;;;;;;;;;5048445;28;20262;-78
2022/02/16 05:25:10;;;;;;;0.08;0.08;;;;;;;;;;5048742;28;20044;-78
2022/02/16 05:27:36;;;;;;;0.03;0.03;;;;;;;;;;5048012;28;20476;-79
2022/02/16 05:30:02;;;;;;;0.05;0.05;;;;;;;;;;5048603;28;20032;-78
2022/02/16 05:32:28;;;;;;;0.00;0.00;;;;;;;;;;5049086;28;20029;-77
2022/02/16 05:34:56;;;;;;;0.00;0.00;;;;;;;;;;5048929;28;20470;-79
2022/02/16 05:37:23;;;;;;;0.93;0.32;;;;;;;;;;5048498;28;20064;-79
2022/02/16 05:39:49;;;;;;;0.40;0.40;;;;;;;;;;5056411;28;20056;-74
2022/02/16 05:42:15;;;;;;;0.10;0.10;;;;;;;;;;5049864;28;20025;-74
2022/02/16 05:44:41;;;;;;;0.10;0.10;;;;;;;;;;5052787;28;20778;-74
2022/02/16 05:47:07;;;;;;;0.00;0.00;;;;;;;;;;5049039;28;20036;-74
2022/02/16 05:49:36;;;;;;;0.35;0.35;;;;;;;;;;5047836;28;20491;-75
2022/02/16 05:52:04;;;;;;;1.20;1.10;;;;;;;;;;5037399;28;20434;-74
2022/02/16 05:54:30;;;;;;;0.00;0.00;;;;;;;;;;5052607;28;20101;-73
2022/02/16 05:56:55;;;;;;;0.00;0.00;;;;;;;;;;5050079;28;20037;-73
2022/02/16 05:59:21;;;;;;;0.15;0.15;;;;;;;;;;5048926;28;20106;-74
2022/02/16 06:01:47;;;;;;;0.10;0.10;;;;;;;;;;5047402;28;20446;-73
2022/02/16 06:04:16;;;;;;;0.00;0.00;;;;;;;;;;5047298;28;20484;-72
2022/02/16 06:06:42;;;;;;;0.25;0.20;;;;;;;;;;5046514;28;20537;-73
2022/02/16 06:09:08;;;;;;;0.20;0.20;;;;;;;;;;5047173;28;20053;-73
2022/02/16 06:11:34;;;;;;;0.20;0.20;;;;;;;;;;5045728;28;20032;-73
2022/02/16 06:16:47;;;;;;;0.10;0.10;;;;;;;;;;5005266;28;20028;-74
2022/02/16 06:19:13;;;;;;;0.10;0.10;;;;;;;;;;5047295;28;20021;-74
2022/02/16 06:21:41;;;;;;;0.30;0.30;;;;;;;;;;5045999;28;20025;-74
2022/02/16 06:24:07;;;;;;;0.00;0.00;;;;;;;;;;5052300;28;20032;-74
2022/02/16 06:26:33;;;;;;;0.00;0.00;;;;;;;;;;5047907;28;20029;-73
2022/02/16 06:28:59;;;;;;;0.10;0.10;;;;;;;;;;5052961;28;20356;-74
2022/02/16 06:31:26;;;;;;;0.05;0.05;;;;;;;;;;5051959;28;20048;-73
2022/02/16 06:33:57;;;;;;;1.85;0.77;;;;;;;;;;5048103;28;20032;-74
2022/02/16 06:36:23;;;;;;;0.00;0.00;;;;;;;;;;5051435;28;20025;-74
2022/02/16 06:38:50;;;;;;;0.10;0.10;;;;;;;;;;5049516;28;20110;-74
2022/02/16 06:41:16;;;;;;;0.00;0.00;;;;;;;;;;5060753;28;20438;-74
2022/02/16 06:43:43;;;;;;;0.00;0.00;;;;;;;;;;5039374;28;20028;-75
2022/02/16 06:46:09;;;;;;;0.40;0.30;;;;;;;;;;5045342;28;20039;-74
2022/02/16 06:48:35;;;;;;;0.28;0.28;;;;;;;;;;5047154;28;20021;-74
2022/02/16 06:51:00;;;;;;;0.55;0.30;;;;;;;;;;5047641;28;20028;-75
2022/02/16 06:53:27;;;;;;;0.08;0.08;;;;;;;;;;5052448;28;20047;-74
2022/02/16 06:55:53;;;;;;;0.73;0.40;;;;;;;;;;5047461;28;20040;-75
2022/02/16 06:58:19;;;;;;;0.90;0.90;;;;;;;;;;5047411;28;20435;-74
2022/02/16 07:00:45;;;;;;;0.20;0.20;;;;;;;;;;5046587;28;20033;-74
2022/02/16 07:03:13;;;;;;;0.10;0.10;;;;;;;;;;5049716;28;20025;-74
2022/02/16 07:05:39;;;;;;;0.15;0.15;;;;;;;;;;5047770;28;20384;-74
2022/02/16 07:08:05;;;;;;;0.30;0.17;;;;;;;;;;5046673;28;20032;-74
2022/02/16 07:10:31;;;;;;;0.00;0.00;;;;;;;;;;5046216;28;20078;-74
2022/02/16 07:12:57;;;;;;;0.45;0.40;;;;;;;;;;5051898;28;20032;-74
2022/02/16 07:15:23;;;;;;;0.25;0.25;;;;;;;;;;5045048;28;20392;-74
2022/02/16 07:17:49;;;;;;;5.18;2.08;;;;;;;;;;5036731;28;20024;-74
2022/02/16 07:20:15;;;;;;;0.00;0.00;;;;;;;;;;5047352;28;20701;-70
2022/02/16 07:22:42;;;;;;;0.93;0.85;;;;;;;;;;5052418;28;20557;-76
2022/02/16 07:25:08;;;;;;;0.08;0.08;;;;;;;;;;5060665;28;20036;-76
2022/02/16 07:27:34;;;;;;;0.35;0.20;;;;;;;;;;5046931;28;20025;-76
2022/02/16 07:30:01;;;;;;;0.30;0.30;;;;;;;;;;5046663;28;20059;-75
2022/02/16 07:32:29;;;;;;;0.30;0.22;;;;;;;;;;5049834;28;20021;-76
2022/02/16 07:34:55;;;;;;;0.10;0.10;;;;;;;;;;5048688;28;20036;-76
2022/02/16 07:37:21;;;;;;;0.35;0.35;;;;;;;;;;5049059;28;20490;-76
2022/02/16 07:39:47;;;;;;;0.00;0.00;;;;;;;;;;5049111;28;20020;-76
2022/02/16 07:42:13;;;;;;;0.00;0.00;;;;;;;;;;5050043;28;20037;-76
2022/02/16 07:44:39;;;;;;;0.00;0.00;;;;;;;;;;5045656;28;20460;-75
2022/02/16 07:47:09;;;;;;;0.10;0.10;;;;;;;;;;5048611;28;20116;-76
2022/02/16 07:49:35;;;;;;;0.10;0.10;;;;;;;;;;5046336;28;20491;-76
2022/02/16 07:52:01;;;;;;;0.10;0.10;;;;;;;;;;5053741;28;20509;-76
2022/02/16 07:54:27;;;;;;;0.75;0.45;;;;;;;;;;5053737;28;20718;-75
2022/02/16 07:56:53;;;;;;;0.10;0.10;;;;;;;;;;5049578;28;20147;-75
2022/02/16 07:59:18;;;;;;;4.93;0.20;;;;;;;;;;5047255;28;20035;-75
2022/02/16 08:01:44;;;;;;;0.20;0.20;;;;;;;;;;5055710;28;20493;-75
2022/02/16 08:04:16;;;;;;;0.63;0.63;;;;;;;;;;5047802;28;20032;-74
2022/02/16 08:06:49;;;;;;;0.10;0.10;;;;;;;;;;5041943;28;20035;-74
2022/02/16 08:09:15;;;;;;;0.00;0.00;;;;;;;;;;5049053;28;20029;-74
2022/02/16 08:11:42;;;;;;;0.30;0.30;;;;;;;;;;5041600;28;20496;-75
2022/02/16 08:14:08;;;;;;;0.10;0.10;;;;;;;;;;5053573;28;20028;-74
2022/02/16 08:16:34;;;;;;;0.10;0.10;;;;;;;;;;5050211;28;20036;-74
2022/02/16 08:19:01;;;;;;;0.05;0.05;;;;;;;;;;5052322;28;20025;-76
2022/02/16 08:21:27;;;;;;;0.15;0.15;;;;;;;;;;5048452;28;20063;-78
2022/02/16 08:23:53;;;;;;;0.22;0.22;;;;;;;;;;5053590;28;20033;-74
2022/02/16 08:26:19;;;;;;;0.65;0.57;;;;;;;;;;5050336;28;20028;-75
2022/02/16 08:28:48;;;;;;;0.20;0.20;;;;;;;;;;5053795;28;20032;-74
2022/02/16 08:31:14;;;;;;;0.20;0.20;;;;;;;;;;5051123;28;20029;-74
2022/02/16 08:33:40;;;;;;;0.10;0.10;;;;;;;;;;5049782;28;20082;-74
2022/02/16 08:36:06;;;;;;;0.10;0.10;;;;;;;;;;5058377;28;20051;-75
2022/02/16 08:38:32;;;;;;;0.08;0.08;;;;;;;;;;5053399;28;20053;-75
2022/02/16 08:40:58;;;;;;;0.20;0.20;;;;;;;;;;5049986;28;20072;-76
2022/02/16 08:43:24;;;;;;;0.00;0.00;;;;;;;;;;5057059;28;20032;-74
2022/02/16 08:45:50;;;;;;;0.20;0.20;;;;;;;;;;5048801;28;20164;-74
2022/02/16 08:48:16;;;;;;;3.83;0.32;;;;;;;;;;5050410;28;20124;-74
2022/02/16 08:50:42;;;;;;;0.13;0.13;;;;;;;;;;5047594;28;20059;-75
2022/02/16 08:53:08;;;;;;;0.10;0.10;;;;;;;;;;5048956;28;20536;-75
2022/02/16 08:55:34;;;;;;;0.32;0.30;;;;;;;;;;5048827;28;20047;-75
2022/02/16 08:58:00;;;;;;;0.28;0.28;;;;;;;;;;5051869;28;20632;-80
2022/02/16 09:00:26;;;;;;;0.32;0.32;;;;;;;;;;5049228;28;20020;-79
2022/02/16 09:02:52;;;;;;;0.10;0.10;;;;;;;;;;5049275;28;20017;-76
2022/02/16 09:05:18;;;;;;;0.10;0.10;;;;;;;;;;5049318;28;20122;-75
2022/02/16 09:07:44;;;;;;;0.08;0.08;;;;;;;;;;5048265;28;20396;-74
2022/02/16 09:10:11;;;;;;;0.10;0.10;;;;;;;;;;5048632;28;20032;-76
2022/02/16 09:12:37;;;;;;;0.00;0.00;;;;;;;;;;5049685;28;20056;-74
2022/02/16 09:15:04;;;;;;;0.35;0.35;;;;;;;;;;5050068;28;20025;-78
2022/02/16 09:17:30;;;;;;;0.30;0.20;;;;;;;;;;5049378;28;20020;-76
2022/02/16 09:20:00;;;;;;;0.10;0.10;;;;;;;;;;5048708;28;20396;-75
2022/02/16 09:22:29;;;;;;;0.00;0.00;;;;;;;;;;5048066;28;20025;-75
2022/02/16 09:24:55;;;;;;;0.10;0.10;;;;;;;;;;5046741;28;20025;-76
2022/02/16 09:27:21;;;;;;;0.30;0.30;;;;;;;;;;5044025;28;20048;-76
2022/02/16 09:29:48;;;;;;;0.03;0.03;;;;;;;;;;5054506;28;20032;-79
2022/02/16 09:32:15;;;;;;;0.10;0.10;;;;;;;;;;5043037;28;20470;-77
2022/02/16 09:34:43;;;;;;;0.10;0.10;;;;;;;;;;5043727;28;20044;-75
2022/02/16 09:37:09;;;;;;;0.10;0.10;;;;;;;;;;5048564;28;20056;-75
2022/02/16 09:39:34;;;;;;;0.03;0.03;;;;;;;;;;5046664;28;20114;-73
2022/02/16 09:42:00;;;;;;;0.38;0.30;;;;;;;;;;5044699;28;20487;-74
2022/02/16 09:44:45;;;;;;;0.40;0.40;;;;;;;;;;5044949;28;20020;-75
2022/02/16 09:47:12;;;;;;;0.00;0.00;;;;;;;;;;5039145;28;20480;-77
2022/02/16 09:49:39;;;;;;;0.00;0.00;;;;;;;;;;5041710;28;20032;-76
2022/02/16 09:52:06;;;;;;;0.05;0.05;;;;;;;;;;5046325;28;20392;-76
2022/02/16 09:54:32;;;;;;;0.10;0.10;;;;;;;;;;5035791;28;20059;-76
2022/02/16 09:56:58;;;;;;;0.10;0.10;;;;;;;;;;5046984;28;20025;-77
2022/02/16 09:59:24;;;;;;;0.00;0.00;;;;;;;;;;5044575;28;20423;-76
2022/02/16 10:01:56;;;;;;;0.00;0.00;;;;;;;;;;5027448;28;20103;-77
2022/02/16 10:04:22;;;;;;;0.13;0.03;;;;;;;;;;5046362;28;20365;-76
2022/02/16 10:06:48;;;;;;;0.00;0.00;;;;;;;;;;5044019;28;20036;-77
2022/02/16 10:09:28;;;;;;;1.95;0.63;;;;;;;;;;5040502;28;20024;-76
2022/02/16 10:11:55;;;;;;;0.20;0.20;;;;;;;;;;5042106;28;20052;-76
2022/02/16 10:14:23;;;;;;;0.32;0.30;;;;;;;;;;5037635;28;20086;-77
2022/02/16 10:16:49;;;;;;;0.03;0.03;;;;;;;;;;5043553;28;20103;-76
2022/02/16 10:19:15;;;;;;;0.45;0.45;;;;;;;;;;5041097;28;20029;-76
2022/02/16 10:21:58;;;;;;;0.03;0.03;;;;;;;;;;5043084;28;20032;-76
2022/02/16 10:24:40;;;;;;;0.00;0.00;;;;;;;;;;5040551;28;20454;-76
2022/02/16 10:27:06;;;;;;;0.05;0.05;;;;;;;;;;5044146;28;20033;-77
2022/02/16 10:29:34;;;;;;;0.10;0.10;;;;;;;;;;5045260;28;20086;-75
2022/02/16 10:32:00;;;;;;;0.45;0.45;;;;;;;;;;5042747;28;20037;-76
2022/02/16 10:34:46;;;;;;;0.00;0.00;;;;;;;;;;5045102;28;20040;-75
2022/02/16 10:37:12;;;;;;;0.00;0.00;;;;;;;;;;5045520;28;20028;-76
2022/02/16 10:39:38;;;;;;;0.10;0.10;;;;;;;;;;5047040;28;20044;-76
2022/02/16 10:42:08;;;;;;;0.00;0.00;;;;;;;;;;5043641;28;20021;-77
2022/02/16 10:44:35;;;;;;;0.00;0.00;;;;;;;;;;5038458;28;20040;-76
2022/02/16 10:47:08;;;;;;;0.00;0.00;;;;;;;;;;5042336;28;20028;-76
2022/02/16 10:49:35;;;;;;;0.10;0.10;;;;;;;;;;5047036;28;20048;-76
2022/02/16 10:52:04;;;;;;;0.10;0.10;;;;;;;;;;5049342;28;20028;-76
2022/02/16 10:54:30;;;;;;;1.55;0.57;;;;;;;;;;5045733;28;20535;-77
2022/02/16 10:56:56;;;;;;;0.00;0.00;;;;;;;;;;5025889;28;20032;-77
2022/02/16 10:59:22;;;;;;;0.00;0.00;;;;;;;;;;5044565;28;20059;-77
2022/02/16 11:01:48;;;;;;;0.10;0.10;;;;;;;;;;5040541;28;20464;-76
2022/02/16 11:04:15;;;;;;;0.03;0.03;;;;;;;;;;5038253;28;20167;-77
2022/02/16 11:06:43;;;;;;;0.00;0.00;;;;;;;;;;5045390;28;20029;-76
2022/02/16 11:09:12;;;;;;;0.13;0.13;;;;;;;;;;5044906;28;20112;-77
2022/02/16 11:11:41;;;;;;;0.00;0.00;;;;;;;;;;5040065;28;20119;-76
2022/02/16 11:14:07;;;;;;;0.10;0.10;;;;;;;;;;5041106;28;20029;-76
2022/02/16 11:16:34;;;;;;;0.20;0.20;;;;;;;;;;5040174;28;20037;-76
2022/02/16 11:19:01;;;;;;;0.10;0.10;;;;;;;;;;5041727;28;20553;-76
2022/02/16 11:21:30;;;;;;;0.10;0.10;;;;;;;;;;5042417;28;20025;-77
2022/02/16 11:23:58;;;;;;;0.00;0.00;;;;;;;;;;5043005;28;20039;-76
2022/02/16 11:26:30;;;;;;;0.10;0.10;;;;;;;;;;5041786;28;20444;-77
2022/02/16 11:28:57;;;;;;;0.10;0.10;;;;;;;;;;5052065;28;20547;-77
2022/02/16 11:31:26;;;;;;;0.00;0.00;;;;;;;;;;5044957;28;20036;-76
2022/02/16 11:34:22;;;;;;;0.00;0.00;;;;;;;;;;5043333;28;20037;-76
2022/02/16 11:36:48;;;;;;;0.10;0.10;;;;;;;;;;5029107;28;20503;-77
2022/02/16 11:39:32;;;;;;;0.00;0.00;;;;;;;;;;5044698;28;20037;-76
2022/02/16 11:41:59;;;;;;;0.13;0.13;;;;;;;;;;5049969;28;20036;-78
2022/02/16 11:44:44;;;;;;;0.20;0.20;;;;;;;;;;5049754;28;20021;-75
2022/02/16 11:47:10;;;;;;;0.05;0.05;;;;;;;;;;5054865;28;20021;-74
2022/02/16 11:49:37;;;;;;;0.13;0.13;;;;;;;;;;5049507;28;20046;-76
2022/02/16 11:52:23;;;;;;;0.13;0.13;;;;;;;;;;5047312;28;20033;-73
2022/02/16 11:54:55;;;;;;;0.20;0.20;;;;;;;;;;5047853;28;20063;-74
2022/02/16 11:57:42;;;;;;;0.10;0.10;;;;;;;;;;5053276;28;20025;-77
2022/02/16 12:00:13;;;;;;;0.10;0.10;;;;;;;;;;5050710;28;20029;-75
2022/02/16 12:03:06;;;;;;;0.10;0.10;;;;;;;;;;5055352;28;20108;-75
2022/02/16 12:05:55;;;;;;;0.10;0.10;;;;;;;;;;5047273;28;20029;-75
2022/02/16 12:08:23;;;;;;;0.00;0.00;;;;;;;;;;5051646;28;20032;-74
2022/02/16 12:10:51;;;;;;;0.00;0.00;;;;;;;;;;5050036;28;20094;-73
2022/02/16 12:13:24;;;;;;;0.00;0.00;;;;;;;;;;5053078;28;20470;-76
2022/02/16 12:15:54;;;;;;;0.00;0.00;;;;;;;;;;5047893;28;20029;-77
2022/02/16 12:18:21;;;;;;;1.25;0.40;;;;;;;;;;5053311;28;20391;-82
2022/02/16 12:20:52;;;;;;;0.00;0.00;;;;;;;;;;5048368;28;20025;-75
2022/02/16 12:23:18;;;;;;;0.10;0.10;;;;;;;;;;5049381;28;20025;-76
2022/02/16 12:25:45;;;;;;;0.32;0.32;;;;;;;;;;5045134;28;20041;-74
2022/02/16 12:28:11;;;;;;;0.00;0.00;;;;;;;;;;5045002;28;20028;-76
2022/02/16 12:30:41;;;;;;;0.00;0.00;;;;;;;;;;5046797;28;20033;-75
2022/02/16 12:33:21;;;;;;;0.10;0.10;;;;;;;;;;5060893;28;20071;-74
2022/02/16 12:35:48;;;;;;;0.00;0.00;;;;;;;;;;5050737;28;20032;-75
2022/02/16 12:38:21;;;;;;;0.03;0.03;;;;;;;;;;5049783;28;20037;-74
2022/02/16 12:40:47;;;;;;;0.10;0.10;;;;;;;;;;5056730;28;20052;-73
2022/02/16 12:43:13;;;;;;;0.00;0.00;;;;;;;;;;5049076;28;20592;-73
2022/02/16 12:45:39;;;;;;;0.00;0.00;;;;;;;;;;5050734;28;20025;-75
2022/02/16 12:48:05;;;;;;;0.15;0.15;;;;;;;;;;5050952;28;20090;-74
2022/02/16 12:50:31;;;;;;;0.32;0.32;;;;;;;;;;5049282;28;20029;-75
2022/02/16 12:53:01;;;;;;;0.03;0.03;;;;;;;;;;5057917;28;20392;-75
2022/02/16 12:55:27;;;;;;;0.10;0.10;;;;;;;;;;5053158;28;20062;-76
2022/02/16 12:57:53;;;;;;;0.52;0.52;;;;;;;;;;5053497;28;20024;-74
2022/02/16 13:03:07;;;;;;;0.10;0.10;;;;;;;;;;5048568;28;20155;-75
2022/02/16 13:05:35;;;;;;;0.10;0.10;;;;;;;;;;5048132;28;20025;-75
2022/02/16 13:08:01;;;;;;;0.30;0.30;;;;;;;;;;5043786;28;20401;-75
2022/02/16 13:10:28;;;;;;;0.05;0.05;;;;;;;;;;5048479;28;20025;-76
2022/02/16 13:12:56;;;;;;;0.00;0.00;;;;;;;;;;5047038;28;20028;-75
2022/02/16 13:15:23;;;;;;;0.10;0.10;;;;;;;;;;5044737;28;20036;-75
2022/02/16 13:17:53;;;;;;;0.00;0.00;;;;;;;;;;5052665;28;20029;-75
2022/02/16 13:20:28;;;;;;;0.10;0.10;;;;;;;;;;5044476;28;20448;-75
2022/02/16 13:22:56;;;;;;;0.17;0.15;;;;;;;;;;5045523;28;20040;-75
2022/02/16 13:25:28;;;;;;;0.00;0.00;;;;;;;;;;5047612;28;20120;-75
2022/02/16 13:27:54;;;;;;;0.00;0.00;;;;;;;;;;5048156;28;20032;-75
2022/02/16 13:30:21;;;;;;;0.10;0.10;;;;;;;;;;5048883;28;20021;-82
2022/02/16 13:32:48;;;;;;;0.00;0.00;;;;;;;;;;5046615;28;20450;-81
2022/02/16 13:35:16;;;;;;;0.45;0.45;;;;;;;;;;5050526;28;20040;-81
2022/02/16 13:38:02;;;;;;;0.00;0.00;;;;;;;;;;5039874;28;20021;-81
2022/02/16 13:40:44;;;;;;;0.10;0.10;;;;;;;;;;5053381;28;20103;-81
2022/02/16 13:43:10;;;;;;;0.38;0.38;;;;;;;;;;5047759;28;20391;-80
2022/02/16 13:45:37;;;;;;;0.00;0.00;;;;;;;;;;5060775;28;20022;-80
2022/02/16 13:48:04;;;;;;;0.10;0.10;;;;;;;;;;5043694;28;20120;-81
2022/02/16 13:50:40;;;;;;;0.00;0.00;;;;;;;;;;5046281;28;20039;-80
2022/02/16 13:53:07;;;;;;;0.00;0.00;;;;;;;;;;5057259;28;20057;-80
2022/02/16 13:55:52;;;;;;;0.00;0.00;;;;;;;;;;5046437;28;20037;-80
2022/02/16 13:58:23;;;;;;;1.45;0.32;;;;;;;;;;5041726;28;20130;-81
2022/02/16 14:00:59;;;;;;;0.10;0.10;;;;;;;;;;5040263;28;20086;-82
2022/02/16 14:03:25;;;;;;;0.00;0.00;;;;;;;;;;5045073;28;20021;-81
2022/02/16 14:05:51;;;;;;;0.00;0.00;;;;;;;;;;5057332;28;20483;-81
2022/02/16 14:08:17;;;;;;;0.00;0.00;;;;;;;;;;5047821;28;20039;-81
2022/02/16 14:10:43;;;;;;;0.00;0.00;;;;;;;;;;5040993;28;20067;-81
2022/02/16 14:13:09;;;;;;;0.00;0.00;;;;;;;;;;5044058;28;20040;-81
2022/02/16 14:15:35;;;;;;;0.10;0.10;;;;;;;;;;5042231;28;20037;-81
2022/02/16 14:18:02;;;;;;;0.10;0.10;;;;;;;;;;5039276;28;20024;-81
2022/02/16 14:20:28;;;;;;;0.25;0.15;;;;;;;;;;5042953;28;20017;-82
2022/02/16 14:23:21;;;;;;;0.10;0.10;;;;;;;;;;5046050;28;20063;-81
2022/02/16 14:25:47;;;;;;;0.00;0.00;;;;;;;;;;5044541;28;20112;-81
2022/02/16 14:28:13;;;;;;;0.00;0.00;;;;;;;;;;5047871;28;20116;-84
2022/02/16 14:30:39;;;;;;;0.17;0.17;;;;;;;;;;5053126;28;20483;-80
2022/02/16 14:33:05;;;;;;;0.13;0.10;;;;;;;;;;5036511;28;20020;-79
2022/02/16 14:35:32;;;;;;;0.00;0.00;;;;;;;;;;5046716;28;20132;-80
2022/02/16 14:37:57;;;;;;;0.10;0.10;;;;;;;;;;5047555;28;20444;-80
2022/02/16 14:40:23;;;;;;;0.20;0.20;;;;;;;;;;5048730;28;20104;-80
2022/02/16 14:42:49;;;;;;;0.10;0.10;;;;;;;;;;5044341;28;20047;-80
2022/02/16 14:45:16;;;;;;;0.10;0.10;;;;;;;;;;5046599;28;20067;-80
2022/02/16 14:47:43;;;;;;;0.00;0.00;;;;;;;;;;5043807;28;20111;-80
2022/02/16 14:50:09;;;;;;;0.10;0.10;;;;;;;;;;5044869;28;20033;-80